Time;durP1;ratioP1;P1;durP2;ratioP2;P2;SDS_P1;SDS_P2;PMS_P1;PMS_P2;Temp;Humidity;BMP_temperature;BMP_pressure;BME280_temperature;BME280_humidity;BME280_pressure;Samples;Min_cycle;Max_cycle;Signal;HPM_P1;HPM_P2
2021/03/18 00:01:48;;;;;;;11.70;2.92;;;0.80;99.90;;;;;;4994705;28;20037;-81
2021/03/18 00:04:17;;;;;;;11.05;3.00;;;0.80;99.90;;;;;;5006025;28;20054;-80
2021/03/18 00:06:44;;;;;;;12.65;3.00;;;0.80;99.90;;;;;;5011018;28;20049;-80
2021/03/18 00:09:14;;;;;;;15.30;2.92;;;0.80;99.90;;;;;;5009672;28;20058;-80
2021/03/18 00:11:41;;;;;;;8.98;3.38;;;0.80;99.90;;;;;;5012124;28;20048;-80
2021/03/18 00:14:10;;;;;;;13.00;4.47;;;0.80;99.90;;;;;;5005992;28;20052;-80
2021/03/18 00:16:37;;;;;;;10.13;3.10;;;0.80;99.90;;;;;;5000604;28;20064;-81
2021/03/18 00:19:04;;;;;;;13.60;3.97;;;0.80;99.90;;;;;;5009137;28;20056;-80
2021/03/18 00:21:30;;;;;;;14.90;3.13;;;0.80;99.90;;;;;;5000853;28;20401;-80
2021/03/18 00:23:56;;;;;;;33.97;4.20;;;0.80;99.90;;;;;;4996625;28;20498;-81
2021/03/18 00:26:25;;;;;;;10.20;4.32;;;0.80;99.90;;;;;;4994506;28;20136;-81
2021/03/18 00:28:52;;;;;;;14.70;3.58;;;0.70;99.90;;;;;;4988589;28;20133;-81
2021/03/18 00:31:23;;;;;;;13.65;3.28;;;0.70;99.90;;;;;;5005066;28;20052;-80
2021/03/18 00:33:51;;;;;;;6.97;2.78;;;0.70;99.90;;;;;;4993709;28;20057;-80
2021/03/18 00:36:18;;;;;;;9.60;3.08;;;0.70;99.90;;;;;;5015703;28;20122;-80
2021/03/18 00:38:46;;;;;;;9.13;3.47;;;0.70;99.90;;;;;;4995832;28;20054;-80
2021/03/18 00:41:13;;;;;;;13.88;2.90;;;0.60;99.90;;;;;;5004542;28;20065;-79
2021/03/18 00:43:40;;;;;;;14.48;3.05;;;0.60;99.90;;;;;;5017019;28;22019;-79
2021/03/18 00:46:07;;;;;;;9.30;2.85;;;0.60;99.90;;;;;;4998389;28;20049;-79
2021/03/18 00:48:35;;;;;;;16.42;2.88;;;0.50;99.90;;;;;;4997690;28;20050;-79
2021/03/18 00:51:13;;;;;;;9.45;2.67;;;0.50;99.90;;;;;;4998495;28;20055;-79
2021/03/18 00:53:46;;;;;;;6.72;2.70;;;0.40;99.90;;;;;;5016212;28;20105;-79
2021/03/18 00:56:14;;;;;;;11.18;3.28;;;0.50;99.90;;;;;;5013942;28;20064;-80
2021/03/18 00:58:42;;;;;;;6.22;2.75;;;0.50;99.90;;;;;;4986373;28;20137;-80
2021/03/18 01:01:10;;;;;;;10.18;2.88;;;0.40;99.90;;;;;;5010363;28;20045;-80
2021/03/18 01:03:39;;;;;;;10.55;3.13;;;0.40;99.90;;;;;;5010341;28;20074;-80
2021/03/18 01:06:16;;;;;;;13.88;3.10;;;0.40;99.90;;;;;;5014456;28;20071;-81
2021/03/18 01:08:43;;;;;;;9.43;2.95;;;0.40;99.90;;;;;;4999262;28;20404;-81
2021/03/18 01:11:17;;;;;;;11.07;3.20;;;0.40;99.90;;;;;;4993098;28;21134;-81
2021/03/18 01:13:45;;;;;;;;;;;0.40;99.90;;;;;;4992545;28;20079;-81
2021/03/18 01:16:35;;;;;;;9.15;2.63;;;0.40;99.90;;;;;;4992617;28;19968;-79
2021/03/18 01:19:05;;;;;;;7.80;2.85;;;0.40;99.90;;;;;;5007476;28;20113;-80
2021/03/18 01:21:34;;;;;;;14.77;2.80;;;0.40;99.90;;;;;;5007380;28;20057;-80
2021/03/18 01:24:02;;;;;;;11.68;2.83;;;0.40;99.90;;;;;;5008822;28;20107;-80
2021/03/18 01:26:28;;;;;;;9.13;2.70;;;0.40;99.90;;;;;;5009757;28;20052;-80
2021/03/18 01:28:54;;;;;;;10.35;2.95;;;0.30;99.90;;;;;;4998208;28;20121;-81
2021/03/18 01:31:21;;;;;;;10.43;3.00;;;0.40;99.90;;;;;;4992468;28;20054;-81
2021/03/18 01:33:47;;;;;;;11.35;3.03;;;0.40;99.90;;;;;;4988572;28;20489;-80
2021/03/18 01:36:14;;;;;;;12.85;3.63;;;0.30;99.90;;;;;;4991021;28;20789;-81
2021/03/18 01:38:45;;;;;;;21.52;5.00;;;0.30;99.90;;;;;;4997851;28;20052;-80
2021/03/18 01:41:12;;;;;;;11.93;3.00;;;0.40;99.90;;;;;;5010636;28;20580;-81
2021/03/18 01:43:40;;;;;;;14.75;3.00;;;0.40;99.90;;;;;;4993821;28;20069;-80
2021/03/18 01:46:06;;;;;;;11.95;2.80;;;0.40;99.90;;;;;;5001082;28;20049;-81
2021/03/18 01:48:33;;;;;;;15.02;3.95;;;0.40;99.90;;;;;;5010913;28;20046;-81
2021/03/18 01:51:00;;;;;;;14.00;2.83;;;0.30;99.90;;;;;;4997062;28;20046;-81
2021/03/18 01:53:28;;;;;;;11.30;2.85;;;0.40;99.90;;;;;;5003523;28;20128;-81
2021/03/18 01:55:57;;;;;;;12.65;2.90;;;0.40;99.90;;;;;;5001217;28;20089;-80
2021/03/18 01:58:24;;;;;;;11.98;2.67;;;0.40;99.90;;;;;;5007786;28;20053;-80
2021/03/18 02:00:57;;;;;;;13.77;2.70;;;0.30;99.90;;;;;;5007754;28;20045;-80
2021/03/18 02:03:25;;;;;;;11.13;3.05;;;0.40;99.90;;;;;;5007456;28;20128;-80
2021/03/18 02:05:52;;;;;;;15.25;3.50;;;0.40;99.90;;;;;;5010357;28;20058;-80
2021/03/18 02:08:19;;;;;;;11.48;2.83;;;0.40;99.90;;;;;;4997195;28;20050;-80
2021/03/18 02:10:45;;;;;;;10.00;2.47;;;0.40;99.90;;;;;;4986811;28;20073;-81
2021/03/18 02:13:14;;;;;;;12.57;2.47;;;0.40;99.90;;;;;;5011398;28;20049;-80
2021/03/18 02:15:51;;;;;;;8.43;2.47;;;0.30;99.90;;;;;;5012004;28;20050;-81
2021/03/18 02:18:34;;;;;;;11.50;2.50;;;0.30;99.90;;;;;;5012076;28;20053;-80
2021/03/18 02:21:05;;;;;;;6.65;2.15;;;0.30;99.90;;;;;;4988848;28;20046;-80
2021/03/18 02:23:37;;;;;;;13.32;3.45;;;0.30;99.90;;;;;;5013022;28;20049;-80
2021/03/18 02:26:28;;;;;;;13.82;2.95;;;0.30;99.90;;;;;;5012391;28;20057;-81
2021/03/18 02:29:18;;;;;;;12.52;2.42;;;0.30;99.90;;;;;;5010399;28;20038;-79
2021/03/18 02:32:01;;;;;;;15.38;2.88;;;0.30;99.90;;;;;;4989377;28;20046;-80
2021/03/18 02:34:28;;;;;;;10.20;2.58;;;0.30;99.90;;;;;;4993623;28;20048;-80
2021/03/18 02:36:59;;;;;;;11.43;3.35;;;0.40;99.90;;;;;;5013143;28;20133;-80
2021/03/18 02:39:32;;;;;;;5.85;2.22;;;0.40;99.90;;;;;;4992012;28;20683;-80
2021/03/18 02:42:07;;;;;;;9.07;2.65;;;0.40;99.90;;;;;;4993930;28;20539;-79
2021/03/18 02:44:35;;;;;;;13.38;2.83;;;0.40;99.90;;;;;;5009254;28;20056;-79
2021/03/18 02:47:05;;;;;;;8.30;2.95;;;0.40;99.90;;;;;;4994416;28;20042;-80
2021/03/18 02:49:40;;;;;;;10.65;2.80;;;0.50;99.90;;;;;;5002410;28;24889;-79
2021/03/18 02:52:07;;;;;;;7.43;3.13;;;0.50;99.90;;;;;;5014224;28;20041;-79
2021/03/18 02:54:35;;;;;;;7.70;2.55;;;0.60;99.90;;;;;;5011015;28;20664;-79
2021/03/18 02:57:04;;;;;;;20.20;3.17;;;0.60;99.90;;;;;;5011136;28;20053;-79
2021/03/18 02:59:35;;;;;;;9.43;3.90;;;0.70;99.90;;;;;;4992573;28;20076;-79
2021/03/18 03:02:06;;;;;;;16.13;3.30;;;0.80;99.90;;;;;;4995492;28;20121;-80
2021/03/18 03:04:40;;;;;;;11.07;2.50;;;0.80;99.90;;;;;;4992836;28;20057;-79
2021/03/18 03:07:08;;;;;;;16.33;3.38;;;0.90;99.90;;;;;;4984058;28;20041;-80
2021/03/18 03:09:35;;;;;;;8.43;2.42;;;1.00;99.90;;;;;;5006776;28;20083;-79
2021/03/18 03:12:03;;;;;;;12.63;2.60;;;1.00;99.90;;;;;;5000712;28;20049;-79
2021/03/18 03:14:32;;;;;;;7.68;2.75;;;1.10;99.90;;;;;;4992849;28;20137;-79
2021/03/18 03:17:00;;;;;;;11.60;2.92;;;1.20;99.90;;;;;;5010981;28;20081;-80
2021/03/18 03:19:29;;;;;;;12.48;2.97;;;1.20;99.90;;;;;;5011771;28;20068;-80
2021/03/18 03:21:57;;;;;;;13.55;2.90;;;1.30;99.90;;;;;;4984889;28;20141;-80
2021/03/18 03:24:26;;;;;;;9.30;2.63;;;1.30;99.90;;;;;;5010367;28;20046;-80
2021/03/18 03:26:54;;;;;;;4.53;2.45;;;1.40;99.90;;;;;;4995889;28;20081;-80
2021/03/18 03:29:21;;;;;;;8.45;2.45;;;1.50;99.90;;;;;;4990357;28;20045;-80
2021/03/18 03:31:48;;;;;;;14.70;2.90;;;1.50;99.90;;;;;;5009929;28;20128;-80
2021/03/18 03:34:15;;;;;;;11.15;2.83;;;1.60;99.90;;;;;;5008262;28;20056;-80
2021/03/18 03:36:41;;;;;;;6.10;2.38;;;1.60;99.90;;;;;;5000220;28;20054;-80
2021/03/18 03:39:08;;;;;;;8.70;2.55;;;1.60;99.90;;;;;;5004853;28;20129;-80
2021/03/18 03:41:35;;;;;;;16.10;3.42;;;1.70;99.90;;;;;;5007817;28;20152;-79
2021/03/18 03:44:04;;;;;;;12.95;3.00;;;1.70;99.90;;;;;;4997756;28;20544;-79
2021/03/18 03:46:30;;;;;;;4.32;2.42;;;1.70;99.90;;;;;;4994287;28;20104;-79
2021/03/18 03:48:57;;;;;;;7.32;2.35;;;1.80;99.90;;;;;;5000731;28;20172;-79
2021/03/18 03:51:32;;;;;;;11.25;2.80;;;1.70;99.90;;;;;;4994545;28;20127;-79
2021/03/18 03:54:03;;;;;;;11.32;2.70;;;1.70;99.90;;;;;;5008561;28;20464;-79
2021/03/18 03:56:55;;;;;;;16.88;2.97;;;1.70;99.90;;;;;;4988234;28;20140;-80
2021/03/18 03:59:23;;;;;;;9.38;2.17;;;1.70;99.90;;;;;;4991613;28;20140;-79
2021/03/18 04:01:57;;;;;;;9.93;2.55;;;1.80;99.90;;;;;;5008523;28;20129;-79
2021/03/18 04:04:39;;;;;;;16.88;2.83;;;1.80;99.90;;;;;;5007013;28;20486;-79
2021/03/18 04:07:13;;;;;;;8.73;2.10;;;1.80;99.90;;;;;;4993901;28;20050;-79
2021/03/18 04:09:42;;;;;;;13.45;2.60;;;1.80;99.90;;;;;;5005719;28;20085;-79
2021/03/18 04:12:11;;;;;;;7.10;2.75;;;1.70;99.90;;;;;;5007588;28;20057;-80
2021/03/18 04:14:43;;;;;;;8.35;2.35;;;1.70;99.90;;;;;;4998590;28;20074;-79
2021/03/18 04:17:11;;;;;;;7.88;2.58;;;1.70;99.90;;;;;;5008279;28;20048;-79
2021/03/18 04:19:40;;;;;;;6.72;2.45;;;1.70;99.90;;;;;;4995608;28;20046;-79
2021/03/18 04:22:09;;;;;;;9.60;2.22;;;1.70;99.90;;;;;;4956608;28;20073;-80
2021/03/18 04:24:37;;;;;;;8.15;2.45;;;1.80;99.90;;;;;;4988949;28;20081;-79
2021/03/18 04:27:04;;;;;;;10.43;2.38;;;1.80;99.90;;;;;;4986649;28;20188;-79
2021/03/18 04:29:32;;;;;;;14.80;2.60;;;1.80;99.90;;;;;;5000834;28;20030;-80
2021/03/18 04:31:59;;;;;;;6.32;2.50;;;1.90;99.90;;;;;;4997587;28;20061;-79
2021/03/18 04:34:46;;;;;;;9.38;2.70;;;1.90;99.90;;;;;;5008201;28;20057;-79
2021/03/18 04:37:13;;;;;;;11.95;2.20;;;1.90;99.90;;;;;;4992138;28;20059;-79
2021/03/18 04:39:41;;;;;;;9.38;2.40;;;1.80;99.90;;;;;;5001149;28;20333;-80
2021/03/18 04:42:08;;;;;;;7.72;3.05;;;1.80;99.90;;;;;;4995788;28;20084;-80
2021/03/18 04:44:36;;;;;;;6.32;2.40;;;1.80;99.90;;;;;;4995001;28;20112;-80
2021/03/18 04:47:03;;;;;;;9.88;2.60;;;1.70;99.90;;;;;;5008384;28;20046;-80
2021/03/18 04:49:30;;;;;;;12.80;3.38;;;1.70;99.90;;;;;;5002721;28;25807;-80
2021/03/18 04:51:57;;;;;;;9.30;3.00;;;1.70;99.90;;;;;;5009615;28;20041;-79
2021/03/18 04:54:23;;;;;;;13.93;3.17;;;1.60;99.90;;;;;;5007302;28;20536;-79
2021/03/18 04:56:51;;;;;;;10.40;4.13;;;1.60;99.90;;;;;;4997814;28;20096;-79
2021/03/18 04:59:18;;;;;;;12.93;3.05;;;1.60;99.90;;;;;;4990219;28;20056;-79
2021/03/18 05:01:53;;;;;;;12.27;2.60;;;1.70;99.90;;;;;;5008758;28;20060;-79
2021/03/18 05:04:21;;;;;;;8.50;3.53;;;1.60;99.90;;;;;;4987385;28;20482;-80
2021/03/18 05:06:52;;;;;;;14.07;4.07;;;1.70;99.90;;;;;;5006029;28;20145;-79
2021/03/18 05:09:19;;;;;;;11.95;3.08;;;1.70;99.90;;;;;;4991479;28;20837;-79
2021/03/18 05:11:46;;;;;;;11.43;3.60;;;1.70;99.90;;;;;;4995181;28;20137;-79
2021/03/18 05:14:13;;;;;;;14.98;4.15;;;1.70;99.90;;;;;;4999300;28;20056;-79
2021/03/18 05:16:40;;;;;;;8.38;3.50;;;1.70;99.90;;;;;;5007071;28;20057;-79
2021/03/18 05:19:11;;;;;;;13.90;4.13;;;1.70;99.90;;;;;;5006123;28;20077;-80
2021/03/18 05:21:42;;;;;;;13.82;3.72;;;1.80;99.90;;;;;;5007415;28;20049;-79
2021/03/18 05:24:10;;;;;;;23.38;8.18;;;1.70;99.90;;;;;;4993602;28;20504;-79
2021/03/18 05:26:38;;;;;;;21.20;5.35;;;1.80;99.90;;;;;;5005285;28;20141;-79
2021/03/18 05:29:05;;;;;;;17.58;4.03;;;1.80;99.90;;;;;;5003398;28;20047;-79
2021/03/18 05:31:32;;;;;;;17.98;4.22;;;1.80;99.90;;;;;;4994615;28;20841;-80
2021/03/18 05:33:59;;;;;;;16.33;4.60;;;1.90;99.90;;;;;;4987269;28;20053;-79
2021/03/18 05:36:25;;;;;;;21.38;4.75;;;1.90;99.90;;;;;;4989535;28;20069;-80
2021/03/18 05:38:54;;;;;;;18.77;3.88;;;2.00;99.90;;;;;;4987716;28;20049;-80
2021/03/18 05:41:20;;;;;;;10.57;4.40;;;2.00;99.90;;;;;;4995872;28;20059;-80
2021/03/18 05:43:48;;;;;;;18.27;5.53;;;2.10;99.90;;;;;;5006064;28;20109;-79
2021/03/18 05:46:15;;;;;;;27.55;7.43;;;2.10;99.90;;;;;;5006860;28;20065;-79
2021/03/18 05:48:44;;;;;;;17.35;6.10;;;2.10;99.90;;;;;;4997533;28;20103;-79
2021/03/18 05:51:14;;;;;;;15.65;4.10;;;2.10;99.90;;;;;;4998861;28;20052;-78
2021/03/18 05:53:44;;;;;;;12.63;4.35;;;2.10;99.90;;;;;;4981890;28;20050;-79
2021/03/18 05:56:18;;;;;;;13.55;4.28;;;2.20;99.90;;;;;;5011754;28;20054;-79
2021/03/18 05:58:46;;;;;;;14.75;3.78;;;2.20;99.90;;;;;;5007155;28;20041;-79
2021/03/18 06:01:13;;;;;;;18.92;4.93;;;2.20;99.90;;;;;;5010874;28;20060;-78
2021/03/18 06:03:40;;;;;;;11.73;4.93;;;2.20;99.90;;;;;;5000353;28;20057;-78
2021/03/18 06:06:09;;;;;;;11.18;4.80;;;2.20;99.90;;;;;;4992463;28;20053;-78
2021/03/18 06:08:37;;;;;;;17.00;4.57;;;2.20;99.90;;;;;;4988236;28;21953;-78
2021/03/18 06:11:04;;;;;;;18.25;6.95;;;2.20;99.90;;;;;;5008573;28;20504;-80
2021/03/18 06:13:31;;;;;;;19.83;5.40;;;2.20;99.90;;;;;;5006638;28;20532;-78
2021/03/18 06:15:58;;;;;;;20.20;5.32;;;2.20;99.90;;;;;;4992375;28;20033;-79
2021/03/18 06:18:24;;;;;;;14.98;4.72;;;2.20;99.90;;;;;;4993341;28;20054;-80
2021/03/18 06:20:53;;;;;;;22.35;5.32;;;2.30;99.90;;;;;;4997352;28;20054;-79
2021/03/18 06:23:20;;;;;;;16.85;4.82;;;2.30;99.90;;;;;;4994560;28;20062;-80
2021/03/18 06:25:48;;;;;;;18.88;5.32;;;2.30;99.90;;;;;;4994970;28;20054;-79
2021/03/18 06:28:31;;;;;;;21.75;5.78;;;2.40;99.90;;;;;;4997700;28;20050;-78
2021/03/18 06:31:14;;;;;;;19.83;5.30;;;2.40;99.90;;;;;;4996640;28;20121;-79
2021/03/18 06:33:42;;;;;;;21.15;5.25;;;2.50;99.90;;;;;;5004447;28;20104;-80
2021/03/18 06:36:33;;;;;;;33.72;5.75;;;2.50;99.90;;;;;;4993999;28;20076;-80
2021/03/18 06:39:04;;;;;;;26.23;5.88;;;2.50;99.90;;;;;;4986359;28;20065;-79
2021/03/18 06:41:31;;;;;;;23.38;5.97;;;2.60;99.90;;;;;;5011006;28;20159;-79
2021/03/18 06:43:58;;;;;;;24.90;5.85;;;2.60;99.90;;;;;;5003925;28;20048;-79
2021/03/18 06:46:24;;;;;;;29.05;6.60;;;2.70;99.90;;;;;;5007739;28;20046;-79
2021/03/18 06:48:54;;;;;;;22.83;7.40;;;2.70;99.90;;;;;;4992773;28;20124;-79
2021/03/18 06:51:26;;;;;;;22.98;7.53;;;2.80;99.90;;;;;;4986681;28;20045;-79
2021/03/18 06:53:55;;;;;;;25.52;7.28;;;2.90;99.90;;;;;;5009204;28;20050;-80
2021/03/18 06:56:32;;;;;;;31.67;6.57;;;3.00;99.90;;;;;;5008566;28;20049;-79
2021/03/18 06:58:59;;;;;;;21.10;5.40;;;3.10;99.90;;;;;;5008571;28;20477;-79
2021/03/18 07:01:32;;;;;;;15.70;5.18;;;3.20;99.90;;;;;;5000319;28;20060;-79
2021/03/18 07:04:04;;;;;;;23.35;5.88;;;3.30;99.90;;;;;;5000674;28;20112;-79
2021/03/18 07:06:51;;;;;;;28.35;6.78;;;3.40;99.90;;;;;;5007479;28;20038;-79
2021/03/18 07:09:18;;;;;;;;;;;3.50;99.90;;;;;;5006260;28;20095;-79
2021/03/18 07:11:47;;;;;;;22.13;5.28;;;3.50;99.90;;;;;;4995794;28;19968;-79
2021/03/18 07:14:13;;;;;;;19.60;6.32;;;3.60;99.90;;;;;;5006587;28;20680;-79
2021/03/18 07:16:47;;;;;;;31.88;7.20;;;3.70;99.90;;;;;;4993864;28;20077;-79
2021/03/18 07:19:25;;;;;;;24.98;7.03;;;3.80;99.90;;;;;;5007187;28;20477;-79
2021/03/18 07:21:52;;;;;;;22.13;6.72;;;3.80;99.90;;;;;;4989327;28;20054;-78
2021/03/18 07:24:24;;;;;;;27.35;6.53;;;3.90;99.90;;;;;;4983223;28;20129;-78
2021/03/18 07:26:52;;;;;;;23.80;6.13;;;4.00;99.90;;;;;;5003186;28;20052;-78
2021/03/18 07:29:21;;;;;;;32.63;6.95;;;4.20;99.90;;;;;;4992892;28;20589;-77
2021/03/18 07:31:49;;;;;;;21.42;6.90;;;4.30;99.90;;;;;;5001482;28;20049;-78
2021/03/18 07:34:16;;;;;;;28.40;7.50;;;4.40;99.90;;;;;;4996988;28;20462;-77
2021/03/18 07:36:47;;;;;;;36.55;7.43;;;4.50;99.90;;;;;;5003618;28;20046;-78
2021/03/18 07:39:14;;;;;;;24.67;6.18;;;4.70;99.90;;;;;;5003126;28;20054;-78
2021/03/18 07:41:45;;;;;;;24.85;6.75;;;4.80;99.90;;;;;;4994066;28;20050;-79
2021/03/18 07:44:15;;;;;;;32.25;6.85;;;5.00;99.90;;;;;;5003053;28;20145;-78
2021/03/18 07:46:42;;;;;;;30.05;7.38;;;5.10;99.90;;;;;;4988339;28;20042;-79
2021/03/18 07:49:23;;;;;;;25.90;7.07;;;5.20;99.90;;;;;;5006204;28;20065;-78
2021/03/18 07:51:52;;;;;;;18.98;5.10;;;5.30;99.90;;;;;;4998576;28;20149;-78
2021/03/18 07:54:21;;;;;;;27.60;5.90;;;5.40;99.90;;;;;;4999980;28;20159;-80
2021/03/18 07:56:52;;;;;;;23.55;4.85;;;5.50;99.90;;;;;;4993232;28;20524;-79
2021/03/18 07:59:29;;;;;;;22.13;6.05;;;5.70;99.90;;;;;;4979798;28;20060;-80
2021/03/18 08:02:25;;;;;;;21.27;4.90;;;5.90;99.90;;;;;;5003415;28;20045;-79
2021/03/18 08:04:54;;;;;;;15.60;4.32;;;6.10;99.90;;;;;;4977120;28;20045;-79
2021/03/18 08:07:44;;;;;;;23.80;6.47;;;6.30;99.90;;;;;;4989154;28;20106;-79
2021/03/18 08:10:34;;;;;;;28.30;5.50;;;6.50;99.90;;;;;;4995440;28;20099;-79
2021/03/18 08:13:05;;;;;;;27.65;5.53;;;6.70;99.90;;;;;;4974547;28;20132;-79
2021/03/18 08:15:41;;;;;;;22.00;4.78;;;6.90;99.90;;;;;;4993983;28;20081;-78
2021/03/18 08:18:13;;;;;;;20.83;5.97;;;7.00;99.90;;;;;;5004500;28;20050;-78
2021/03/18 08:20:40;;;;;;;20.08;5.03;;;7.20;99.90;;;;;;4988298;28;23544;-79
2021/03/18 08:23:32;;;;;;;22.52;5.20;;;7.40;99.90;;;;;;5005188;28;20140;-78
2021/03/18 08:26:00;;;;;;;25.35;5.28;;;7.60;99.90;;;;;;5001823;28;20125;-79
2021/03/18 08:28:55;;;;;;;25.85;5.05;;;7.70;99.90;;;;;;5000680;28;20049;-78
2021/03/18 08:31:24;;;;;;;19.98;4.63;;;7.90;99.90;;;;;;5006107;28;20065;-78
2021/03/18 08:33:55;;;;;;;22.48;4.20;;;8.00;99.90;;;;;;5003365;28;20128;-78
2021/03/18 08:36:25;;;;;;;19.88;3.80;;;8.00;99.90;;;;;;4988905;28;20057;-78
2021/03/18 08:39:07;;;;;;;22.65;4.35;;;8.10;99.90;;;;;;5004354;28;20144;-78
2021/03/18 08:41:39;;;;;;;27.65;4.05;;;8.20;99.90;;;;;;5005979;28;20052;-77
2021/03/18 08:44:20;;;;;;;29.13;3.83;;;8.10;99.90;;;;;;4989300;28;20647;-80
2021/03/18 08:46:58;;;;;;;19.67;4.45;;;8.00;99.90;;;;;;4989126;28;20046;-78
2021/03/18 08:49:29;;;;;;;17.05;3.55;;;7.90;99.90;;;;;;5004294;28;20037;-78
2021/03/18 08:52:01;;;;;;;22.48;3.80;;;7.90;99.90;;;;;;5003121;28;20078;-79
2021/03/18 08:54:39;;;;;;;17.85;2.45;;;7.90;99.90;;;;;;5002852;28;20145;-78
2021/03/18 08:57:19;;;;;;;26.13;4.75;;;7.90;99.90;;;;;;4988670;28;20049;-78
2021/03/18 08:59:48;;;;;;;25.42;4.75;;;8.00;99.90;;;;;;5006023;28;20070;-79
2021/03/18 09:02:17;;;;;;;31.80;2.85;;;8.10;99.90;;;;;;4985883;28;20081;-78
2021/03/18 09:04:48;;;;;;;22.25;2.67;;;8.30;99.90;;;;;;5005389;28;20116;-78
2021/03/18 09:07:19;;;;;;;19.10;2.95;;;8.40;99.90;;;;;;5005894;28;20057;-79
2021/03/18 09:09:46;;;;;;;23.85;3.35;;;8.60;99.90;;;;;;4999388;28;20170;-78
2021/03/18 09:12:12;;;;;;;20.80;3.03;;;8.70;99.90;;;;;;5005005;28;20054;-78
2021/03/18 09:14:39;;;;;;;20.00;3.47;;;8.90;99.90;;;;;;5004108;28;20133;-79
2021/03/18 09:17:08;;;;;;;24.58;3.42;;;8.90;99.90;;;;;;5003316;28;20060;-79
2021/03/18 09:19:36;;;;;;;19.50;2.83;;;8.80;99.90;;;;;;5006951;28;20697;-80
2021/03/18 09:22:04;;;;;;;19.55;3.25;;;8.80;99.90;;;;;;5005101;28;20109;-80
2021/03/18 09:24:39;;;;;;;20.90;3.50;;;8.80;99.90;;;;;;4999894;28;20046;-78
2021/03/18 09:27:11;;;;;;;29.98;5.22;;;8.80;99.90;;;;;;5006888;28;20104;-79
2021/03/18 09:29:39;;;;;;;17.63;2.90;;;8.80;99.90;;;;;;5002171;28;20084;-79
2021/03/18 09:32:08;;;;;;;13.70;3.05;;;8.70;99.90;;;;;;5006480;28;20048;-79
2021/03/18 09:34:36;;;;;;;16.40;2.75;;;8.70;99.90;;;;;;4988128;28;20441;-79
2021/03/18 09:37:07;;;;;;;16.67;2.83;;;8.80;99.90;;;;;;4990232;28;20045;-79
2021/03/18 09:39:33;;;;;;;19.77;4.07;;;8.80;99.90;;;;;;5007840;28;20088;-79
2021/03/18 09:42:03;;;;;;;15.90;2.90;;;8.90;99.90;;;;;;4999380;28;20077;-79
2021/03/18 09:44:30;;;;;;;16.90;2.55;;;9.00;99.90;;;;;;4993342;28;20066;-79
2021/03/18 09:47:03;;;;;;;20.80;2.30;;;9.10;99.90;;;;;;5001258;28;20050;-80
2021/03/18 09:49:36;;;;;;;21.58;3.30;;;9.10;99.90;;;;;;5003250;28;20409;-80
2021/03/18 09:52:09;;;;;;;21.35;2.03;;;9.20;99.90;;;;;;5004017;28;20629;-79
2021/03/18 09:54:37;;;;;;;17.07;3.83;;;9.20;99.90;;;;;;5006072;28;20050;-80
2021/03/18 09:57:06;;;;;;;14.88;2.42;;;9.20;99.90;;;;;;4987748;28;20293;-79
2021/03/18 09:59:34;;;;;;;26.52;2.60;;;9.10;99.90;;;;;;4995605;28;20551;-80
2021/03/18 10:02:03;;;;;;;19.42;2.88;;;9.20;99.90;;;;;;5004152;28;20038;-80
2021/03/18 10:04:40;;;;;;;17.55;2.92;;;9.30;99.90;;;;;;4996426;28;20088;-80
2021/03/18 10:07:06;;;;;;;21.85;2.75;;;9.40;99.90;;;;;;4987511;28;20371;-79
2021/03/18 10:09:36;;;;;;;16.88;2.42;;;9.40;99.90;;;;;;5003812;28;20099;-79
2021/03/18 10:12:06;;;;;;;23.13;3.45;;;9.50;99.90;;;;;;4984050;28;20046;-79
2021/03/18 10:14:35;;;;;;;23.50;4.68;;;9.60;99.90;;;;;;5002890;28;20046;-80
2021/03/18 10:17:09;;;;;;;15.38;3.05;;;9.70;99.90;;;;;;5006817;28;20069;-79
2021/03/18 10:19:45;;;;;;;24.98;3.50;;;9.80;99.90;;;;;;5004801;28;20119;-79
2021/03/18 10:22:12;;;;;;;24.85;4.22;;;9.80;99.90;;;;;;4984976;28;20071;-80
2021/03/18 10:24:39;;;;;;;22.75;3.80;;;10.00;99.90;;;;;;4993182;28;20080;-78
2021/03/18 10:27:08;;;;;;;32.72;4.43;;;10.10;99.90;;;;;;5000425;28;20033;-78
2021/03/18 10:29:35;;;;;;;19.13;3.22;;;10.30;99.90;;;;;;4986254;28;20596;-78
2021/03/18 10:32:18;;;;;;;19.15;3.70;;;10.30;99.90;;;;;;4969856;28;20054;-77
2021/03/18 10:34:55;;;;;;;21.15;2.92;;;10.30;99.90;;;;;;5005178;28;20049;-79
2021/03/18 10:37:32;;;;;;;21.20;3.67;;;10.30;99.90;;;;;;5009055;28;20052;-79
2021/03/18 10:40:11;;;;;;;31.10;5.28;;;10.30;99.90;;;;;;5005168;28;20176;-78
2021/03/18 10:42:38;;;;;;;29.42;3.58;;;10.40;99.90;;;;;;4992244;28;20079;-79
2021/03/18 10:45:27;;;;;;;27.85;4.72;;;10.50;99.90;;;;;;4996944;28;20050;-78
2021/03/18 10:48:06;;;;;;;24.55;3.28;;;10.50;99.90;;;;;;4992008;28;20052;-78
2021/03/18 10:50:38;;;;;;;21.83;3.25;;;10.40;99.90;;;;;;5009025;28;20136;-77
2021/03/18 10:53:08;;;;;;;30.55;4.00;;;10.30;99.90;;;;;;4996690;28;20141;-78
2021/03/18 10:55:40;;;;;;;22.02;4.07;;;10.10;99.90;;;;;;4998774;28;20481;-79
2021/03/18 10:58:09;;;;;;;24.42;3.33;;;9.90;99.90;;;;;;5004560;28;20054;-77
2021/03/18 11:00:39;;;;;;;39.55;6.22;;;9.80;99.90;;;;;;5004510;28;20652;-78
2021/03/18 11:03:13;;;;;;;25.95;3.95;;;9.90;99.90;;;;;;5003438;28;20129;-78
2021/03/18 11:05:48;;;;;;;18.50;2.63;;;10.10;99.90;;;;;;4993061;28;20049;-78
2021/03/18 11:08:16;;;;;;;33.15;4.50;;;10.30;99.90;;;;;;5005588;28;20052;-78
2021/03/18 11:10:46;;;;;;;27.60;4.15;;;10.50;99.90;;;;;;4995291;28;20652;-78
2021/03/18 11:13:19;;;;;;;18.42;3.70;;;10.50;99.90;;;;;;4988890;28;20081;-78
2021/03/18 11:15:51;;;;;;;30.52;4.20;;;10.30;99.90;;;;;;4989671;28;20482;-78
2021/03/18 11:18:26;;;;;;;26.08;4.30;;;10.10;99.90;;;;;;4986250;28;20077;-78
2021/03/18 11:20:53;;;;;;;21.38;3.80;;;10.00;99.90;;;;;;5008217;28;20587;-78
2021/03/18 11:23:46;;;;;;;22.30;3.55;;;10.00;99.90;;;;;;5007170;28;20077;-78
2021/03/18 11:26:12;;;;;;;23.45;4.13;;;9.90;99.90;;;;;;4981267;28;20136;-81
2021/03/18 11:28:55;;;;;;;32.58;6.43;;;9.90;99.90;;;;;;5007340;28;20053;-82
2021/03/18 11:31:24;;;;;;;20.80;4.15;;;9.70;99.90;;;;;;4992968;28;20569;-81
2021/03/18 11:33:51;;;;;;;23.67;4.10;;;9.60;99.90;;;;;;5000491;28;20371;-80
2021/03/18 11:36:18;;;;;;;27.63;5.35;;;9.50;99.90;;;;;;5000369;28;20049;-78
2021/03/18 11:38:44;;;;;;;26.00;4.57;;;9.50;99.90;;;;;;4994771;28;20049;-79
2021/03/18 11:41:11;;;;;;;23.05;4.13;;;9.70;99.90;;;;;;5009610;28;20054;-78
2021/03/18 11:43:38;;;;;;;18.52;3.72;;;10.00;99.90;;;;;;4996780;28;20062;-79
2021/03/18 11:46:05;;;;;;;21.35;3.30;;;10.40;99.90;;;;;;4996819;28;20919;-78
2021/03/18 11:48:32;;;;;;;22.98;4.10;;;10.80;99.90;;;;;;4994607;28;20079;-78
2021/03/18 11:50:59;;;;;;;29.05;3.38;;;11.20;99.90;;;;;;5008733;28;20077;-79
2021/03/18 11:53:25;;;;;;;21.23;3.35;;;11.40;99.90;;;;;;5006642;28;20078;-78
2021/03/18 11:55:52;;;;;;;18.25;3.92;;;11.50;99.90;;;;;;5006396;28;20053;-79
2021/03/18 11:58:18;;;;;;;19.75;3.28;;;11.60;99.90;;;;;;4991192;28;20547;-78
2021/03/18 12:00:44;;;;;;;18.83;2.80;;;11.80;99.90;;;;;;5009326;28;20050;-78
2021/03/18 12:03:12;;;;;;;22.42;3.08;;;11.80;99.90;;;;;;4995849;28;20057;-78
2021/03/18 12:05:42;;;;;;;20.00;2.83;;;11.90;99.90;;;;;;4987784;28;20604;-78
2021/03/18 12:08:10;;;;;;;21.25;3.05;;;12.00;99.90;;;;;;4992762;28;20050;-79
2021/03/18 12:10:45;;;;;;;19.25;2.95;;;12.20;99.90;;;;;;5007255;28;20056;-79
2021/03/18 12:13:11;;;;;;;26.70;4.72;;;12.20;99.90;;;;;;4991096;28;20088;-79
2021/03/18 12:15:37;;;;;;;25.67;3.13;;;12.20;99.90;;;;;;4993571;28;20207;-78
2021/03/18 12:18:04;;;;;;;17.17;3.17;;;12.20;99.90;;;;;;5003701;28;20544;-78
2021/03/18 12:20:31;;;;;;;21.30;3.75;;;12.30;99.90;;;;;;4988857;28;20054;-77
2021/03/18 12:22:57;;;;;;;15.73;3.47;;;12.40;99.90;;;;;;5007689;28;20056;-79
2021/03/18 12:25:24;;;;;;;23.30;3.42;;;12.70;99.90;;;;;;5007237;28;20046;-80
2021/03/18 12:27:52;;;;;;;18.40;3.17;;;13.30;99.90;;;;;;5008706;28;20054;-79
2021/03/18 12:30:21;;;;;;;24.58;3.33;;;13.80;99.90;;;;;;5006915;28;20056;-79
2021/03/18 12:32:48;;;;;;;25.60;3.25;;;14.00;99.90;;;;;;4997028;28;20056;-78
2021/03/18 12:35:17;;;;;;;20.08;3.42;;;13.90;99.90;;;;;;4991406;28;20082;-79
2021/03/18 12:37:45;;;;;;;18.50;2.92;;;13.50;99.90;;;;;;4993136;28;20041;-79
2021/03/18 12:40:12;;;;;;;16.60;2.58;;;13.20;99.90;;;;;;4990163;28;20109;-78
2021/03/18 12:42:38;;;;;;;18.00;2.97;;;12.80;99.90;;;;;;4993058;28;20144;-79
2021/03/18 12:45:08;;;;;;;17.75;2.65;;;12.50;99.90;;;;;;5006114;28;20072;-79
2021/03/18 12:47:35;;;;;;;22.00;2.83;;;12.40;99.90;;;;;;5002707;28;20062;-77
2021/03/18 12:50:07;;;;;;;20.52;2.97;;;12.20;99.90;;;;;;4994736;28;20121;-78
2021/03/18 12:52:33;;;;;;;18.00;3.13;;;12.00;99.90;;;;;;4988441;28;20061;-78
2021/03/18 12:55:00;;;;;;;15.52;3.08;;;11.90;99.90;;;;;;4985396;28;20046;-79
2021/03/18 12:57:47;;;;;;;24.85;2.83;;;11.90;99.90;;;;;;5006641;28;20046;-78
2021/03/18 13:00:16;;;;;;;15.57;2.83;;;11.70;99.90;;;;;;5004532;28;20048;-78
2021/03/18 13:02:42;;;;;;;15.77;2.45;;;11.60;99.90;;;;;;5004116;28;20074;-79
2021/03/18 13:05:09;;;;;;;18.05;2.95;;;11.40;99.90;;;;;;4995041;28;20053;-83